logo tempoitalia

Diretta Meteo Huesca-Pirineos, Spagnavenerdì 19 luglio ore 08:00

Mappa
Sereno 23 °C Sereno 24 Ore: T.min 21 T.max 37
Ponente Nord Km/h 5.5 Punto di rugiada: 15 °C Umidità: 60% Visibilità: 10 Km
Il sole sorge alle: 06:41 Il sole tramonta alle: 21:34
19 Luglio 2024 08:00 tempo osservato: Sereno Sereno 23 60 1020 vento: Nord N 5.5
19 Luglio 2024 07:30 tempo osservato: Sereno Sereno 21 68 1020 vento: Nord N 5.5
19 Luglio 2024 07:00 tempo osservato: Sereno Sereno 21 64 1020 vento: Nord N 5.5
19 Luglio 2024 06:30 tempo osservato: Sereno Sereno 22 64 1019 vento: Nord N 5.5
19 Luglio 2024 06:00 tempo osservato: Sereno Sereno 23 56 1019 vento: Nord N 5.5
19 Luglio 2024 05:30 tempo osservato: Sereno Sereno 24 57 1019 vento: Nord E 9.3
19 Luglio 2024 05:00 tempo osservato: Sereno Sereno 25 50 1019 vento: Nord E 7.4
19 Luglio 2024 04:30 tempo osservato: Sereno Sereno 24 53 1019 vento: Nord NE 7.4
19 Luglio 2024 04:00 tempo osservato: Sereno Sereno 25 50 1019 vento: Nord N 5.5
19 Luglio 2024 03:30 tempo osservato: Sereno Sereno 25 50 1019 vento: Nord E 13
19 Luglio 2024 03:00 tempo osservato: Sereno Sereno 25 53 1019 vento: Nord E 9.3
19 Luglio 2024 02:30 tempo osservato: Sereno Sereno 26 50 1019 vento: Nord E 13
19 Luglio 2024 02:00 tempo osservato: Sereno Sereno 26 54 1019 vento: Nord E/NE 9.3
19 Luglio 2024 01:30 tempo osservato: Sereno Sereno 26 54 1019 vento: Nord E 14.8
19 Luglio 2024 01:00 tempo osservato: Sereno Sereno 26 54 1019 vento: Nord E 14.8
19 Luglio 2024 00:30 tempo osservato: Sereno Sereno 26 57 1019 vento: Nord E 9.3
19 Luglio 2024 00:00 tempo osservato: Sereno Sereno 26 54 1019 vento: Nord E 13
18 Luglio 2024 23:30 tempo osservato: Sereno Sereno 26 57 1019 vento: Nord E/NE 11.1
18 Luglio 2024 23:00 tempo osservato: Sereno Sereno 27 54 1019 vento: Nord E/NE 14.8
18 Luglio 2024 22:30 tempo osservato: Sereno Sereno 28 51 1019 vento: Nord E 14.8
18 Luglio 2024 22:00 tempo osservato: Sereno Sereno 30 45 1018 vento: Nord E 13
18 Luglio 2024 21:30 tempo osservato: Sereno Sereno 31 40 1019 vento: Nord SE 16.7
18 Luglio 2024 21:00 tempo osservato: Sereno Sereno 31 45 1018 vento: Nord SE 16.7
18 Luglio 2024 20:30 tempo osservato: Sereno Sereno 32 43 1018 vento: Nord SE 14.8
18 Luglio 2024 20:00 tempo osservato: Poco Nuvoloso Poco Nuvoloso 34 32 1018 vento: Nord SE 9.3
18 Luglio 2024 19:30 tempo osservato: Sereno Sereno 35 24 1018 vento: Nord N 5.5
18 Luglio 2024 19:00 tempo osservato: Sereno Sereno 36 23 1017 vento: Nord N 3.7
18 Luglio 2024 18:30 tempo osservato: Sereno Sereno 35 28 1017 vento: Nord N 5.5
18 Luglio 2024 18:00 tempo osservato: Poco Nuvoloso Poco Nuvoloso 37 27 1018 vento: Nord SO 11.1
18 Luglio 2024 17:30 tempo osservato: Poco Nuvoloso Poco Nuvoloso 36 25 1018 vento: Nord O 13
18 Luglio 2024 17:00 tempo osservato: Poco Nuvoloso Poco Nuvoloso 36 26 1018 vento: Nord SO 11.1
18 Luglio 2024 16:30 tempo osservato: Sereno Sereno 35 30 1018 vento: Nord E/SE 11.1
18 Luglio 2024 16:00 tempo osservato: Sereno Sereno 35 28 1019 vento: Nord E 9.3
18 Luglio 2024 15:30 tempo osservato: Sereno Sereno 35 28 1019 vento: Nord E 7.4
18 Luglio 2024 15:00 tempo osservato: Sereno Sereno 34 28 1019 vento: Nord N 5.5
18 Luglio 2024 14:30 tempo osservato: Sereno Sereno 34 30 1019 vento: Nord E 9.3
18 Luglio 2024 14:00 tempo osservato: Sereno Sereno 33 31 1020 vento: Nord SE 9.3
18 Luglio 2024 13:30 tempo osservato: Sereno Sereno 33 31 1020 vento: Nord SE 7.4
18 Luglio 2024 13:00 tempo osservato: Sereno Sereno 32 33 1020 vento: Nord E/SE 11.1
18 Luglio 2024 12:30 tempo osservato: Sereno Sereno 31 37 1020 vento: Nord SE 11.1
18 Luglio 2024 12:00 tempo osservato: Sereno Sereno 31 37 1020 vento: Nord SE 13
18 Luglio 2024 11:30 tempo osservato: Sereno Sereno 29 45 1020 vento: Nord E/SE 9.3
18 Luglio 2024 11:00 tempo osservato: Sereno Sereno 28 48 1020 vento: Nord E/SE 13
18 Luglio 2024 10:30 tempo osservato: Sereno Sereno 27 50 1020 vento: Nord E 11.1
18 Luglio 2024 10:00 tempo osservato: Sereno Sereno 26 54 1020 vento: Nord E 11.1
18 Luglio 2024 09:30 tempo osservato: Sereno Sereno 25 53 1020 vento: Nord E 7.4
18 Luglio 2024 09:00 tempo osservato: Sereno Sereno 23 60 1020 vento: Nord E 7.4